Time,TemperatureF,DewpointF,PressureIn,WindDirection,WindDirectionDegrees,WindSpeedMPH,WindSpeedGustMPH,Humidity,HourlyPrecipIn,Conditions,Clouds,dailyrainin,SoftwareType,DateUTC
2013-06-05 00:02:00,55.0,51.0,30.12,North,0,0.0,0.0,85,0.00,,,0.00,,2013-06-05 04:02:00,
2013-06-05 00:13:00,55.0,51.0,30.12,North,0,0.0,0.0,85,0.00,,,0.00,,2013-06-05 04:13:00,
2013-06-05 00:23:00,55.0,50.0,30.12,NNW,344,0.0,1.0,84,0.00,,,0.00,,2013-06-05 04:23:00,
2013-06-05 00:33:00,54.0,50.0,30.13,North,0,0.0,0.0,85,0.00,,,0.00,,2013-06-05 04:33:00,
2013-06-05 00:42:00,54.0,50.0,30.13,North,0,0.0,0.0,85,0.00,,,0.00,,2013-06-05 04:42:00,
2013-06-05 00:53:00,54.0,50.0,30.13,North,0,0.0,0.0,85,0.00,,,0.00,,2013-06-05 04:53:00,
2013-06-05 01:02:00,53.0,49.0,30.13,NNW,348,0.0,1.0,87,0.00,,,0.00,,2013-06-05 05:02:00,
2013-06-05 01:12:00,53.0,49.0,30.13,NNW,348,0.0,1.0,87,0.00,,,0.00,,2013-06-05 05:12:00,
2013-06-05 01:23:00,53.0,49.0,30.12,NNW,328,0.0,1.0,86,0.00,,,0.00,,2013-06-05 05:23:00,
2013-06-05 01:32:00,53.0,49.0,30.12,NNW,328,0.0,1.0,86,0.00,,,0.00,,2013-06-05 05:32:00,
2013-06-05 01:42:00,53.0,49.0,30.12,NNW,328,0.0,1.0,86,0.00,,,0.00,,2013-06-05 05:42:00,
2013-06-05 01:52:00,53.0,48.0,30.12,North,0,0.0,0.0,84,0.00,,,0.00,,2013-06-05 05:52:00,
2013-06-05 02:02:00,51.0,47.0,30.12,NE,44,0.0,4.0,86,0.00,,,0.00,,2013-06-05 06:02:00,
2013-06-05 02:12:00,51.0,47.0,30.12,NE,44,0.0,4.0,86,0.00,,,0.00,,2013-06-05 06:12:00,
2013-06-05 02:22:00,50.0,47.0,30.13,NE,36,2.0,3.0,88,0.00,,,0.00,,2013-06-05 06:22:00,
2013-06-05 02:32:00,50.0,46.0,30.15,NNE,28,1.0,4.0,86,0.00,,,0.00,,2013-06-05 06:32:00,
2013-06-05 02:42:00,50.0,46.0,30.15,NNE,28,1.0,4.0,86,0.00,,,0.00,,2013-06-05 06:42:00,
2013-06-05 02:52:00,50.0,45.0,30.13,NE,37,1.0,3.0,84,0.00,,,0.00,,2013-06-05 06:52:00,
2013-06-05 03:02:00,50.0,45.0,30.13,NE,37,1.0,3.0,84,0.00,,,0.00,,2013-06-05 07:02:00,
2013-06-05 03:12:00,50.0,45.0,30.13,NE,37,1.0,3.0,84,0.00,,,0.00,,2013-06-05 07:12:00,
2013-06-05 03:22:00,50.0,45.0,30.13,NE,37,1.0,3.0,84,0.00,,,0.00,,2013-06-05 07:22:00,
2013-06-05 03:32:00,49.0,45.0,30.13,NE,35,2.0,3.0,85,0.00,,,0.00,,2013-06-05 07:32:00,
2013-06-05 03:42:00,49.0,45.0,30.13,NE,35,2.0,3.0,85,0.00,,,0.00,,2013-06-05 07:42:00,
2013-06-05 03:52:00,49.0,46.0,30.14,NE,42,1.0,4.0,89,0.00,,,0.00,,2013-06-05 07:52:00,
2013-06-05 04:02:00,49.0,46.0,30.14,NE,36,1.0,3.0,90,0.00,,,0.00,,2013-06-05 08:02:00,
2013-06-05 04:12:00,49.0,46.0,30.14,NE,36,1.0,3.0,90,0.00,,,0.00,,2013-06-05 08:12:00,
2013-06-05 04:22:00,48.0,45.0,30.14,NE,37,1.0,3.0,91,0.00,,,0.00,,2013-06-05 08:22:00,
2013-06-05 04:32:00,48.0,45.0,30.14,NE,37,0.0,3.0,91,0.00,,,0.00,,2013-06-05 08:32:00,
2013-06-05 04:42:00,48.0,45.0,30.14,NE,37,0.0,3.0,91,0.00,,,0.00,,2013-06-05 08:42:00,
2013-06-05 04:52:00,50.0,47.0,30.14,NNE,21,1.0,2.0,89,0.00,,,0.00,,2013-06-05 08:52:00,
2013-06-05 05:02:00,50.0,47.0,30.14,NNE,21,1.0,2.0,89,0.00,,,0.00,,2013-06-05 09:02:00,
2013-06-05 05:12:00,50.0,47.0,30.14,NNE,21,1.0,2.0,89,0.00,,,0.00,,2013-06-05 09:12:00,
2013-06-05 05:22:00,48.0,45.0,30.14,NE,43,1.0,5.0,89,0.00,,,0.00,,2013-06-05 09:22:00,
2013-06-05 05:33:00,48.0,45.0,30.15,NE,34,1.0,5.0,91,0.00,,,0.00,,2013-06-05 09:33:00,
2013-06-05 05:43:00,48.0,45.0,30.15,NE,34,1.0,5.0,91,0.00,,,0.00,,2013-06-05 09:43:00,
2013-06-05 05:53:00,48.0,45.0,30.15,NE,34,1.0,5.0,91,0.00,,,0.00,,2013-06-05 09:53:00,
2013-06-05 06:03:00,51.0,46.0,30.16,NNE,30,1.0,2.0,83,0.00,,,0.00,,2013-06-05 10:03:00,
2013-06-05 06:13:00,51.0,46.0,30.16,NNE,30,1.0,2.0,83,0.00,,,0.00,,2013-06-05 10:13:00,
2013-06-05 06:22:00,51.0,46.0,30.16,NNE,30,1.0,2.0,83,0.00,,,0.00,,2013-06-05 10:22:00,
2013-06-05 06:33:00,51.0,47.0,30.17,NNE,32,1.0,4.0,85,0.00,,,0.00,,2013-06-05 10:33:00,
2013-06-05 06:42:00,51.0,47.0,30.17,NNE,32,1.0,4.0,85,0.00,,,0.00,,2013-06-05 10:42:00,
2013-06-05 06:50:00,54.0,49.0,30.19,NE,44,1.0,4.0,84,0.00,,,0.00,,2013-06-05 10:50:00,
2013-06-05 06:53:00,52.0,48.0,30.18,NNE,27,1.0,3.0,87,0.00,,,0.00,,2013-06-05 10:53:00,
2013-06-05 07:02:00,52.0,48.0,30.18,NNE,27,1.0,3.0,87,0.00,,,0.00,,2013-06-05 11:02:00,
2013-06-05 07:12:00,52.0,48.0,30.18,NNE,27,1.0,3.0,87,0.00,,,0.00,,2013-06-05 11:12:00,
2013-06-05 07:22:00,54.0,49.0,30.19,NE,44,1.0,4.0,84,0.00,,,0.00,,2013-06-05 11:22:00,
2013-06-05 07:33:00,54.0,49.0,30.19,NE,44,1.0,4.0,84,0.00,,,0.00,,2013-06-05 11:33:00,
2013-06-05 07:42:00,54.0,49.0,30.19,NE,44,1.0,4.0,84,0.00,,,0.00,,2013-06-05 11:42:00,
2013-06-05 08:02:00,58.0,49.0,30.21,NE,51,1.0,3.0,73,0.00,,,0.00,,2013-06-05 12:02:00,
2013-06-05 08:12:00,58.0,49.0,30.21,NE,51,1.0,3.0,73,0.00,,,0.00,,2013-06-05 12:12:00,
2013-06-05 08:22:00,58.0,49.0,30.21,NE,51,1.0,3.0,73,0.00,,,0.00,,2013-06-05 12:22:00,
2013-06-05 08:32:00,61.0,50.0,30.21,NE,50,2.0,5.0,67,0.00,,,0.00,,2013-06-05 12:32:00,
2013-06-05 08:44:00,61.0,50.0,30.21,NE,50,2.0,5.0,67,0.00,,,0.00,,2013-06-05 12:44:00,
2013-06-05 08:52:00,61.0,50.0,30.21,NE,50,2.0,5.0,67,0.00,,,0.00,,2013-06-05 12:52:00,
2013-06-05 09:02:00,62.0,51.0,30.21,NE,47,2.0,4.0,67,0.00,,,0.00,,2013-06-05 13:02:00,
2013-06-05 09:12:00,62.0,51.0,30.21,NE,47,2.0,4.0,67,0.00,,,0.00,,2013-06-05 13:12:00,
2013-06-05 09:22:00,63.0,52.0,30.22,NE,48,2.0,4.0,67,0.00,,,0.00,,2013-06-05 13:22:00,
2013-06-05 09:33:00,63.0,52.0,30.22,NE,48,2.0,4.0,67,0.00,,,0.00,,2013-06-05 13:33:00,
2013-06-05 09:42:00,63.0,52.0,30.22,NE,48,2.0,4.0,67,0.00,,,0.00,,2013-06-05 13:42:00,
2013-06-05 09:52:00,63.0,52.0,30.22,NE,48,2.0,4.0,67,0.00,,,0.00,,2013-06-05 13:52:00,
2013-06-05 10:02:00,66.0,51.0,30.22,East,87,2.0,4.0,59,0.00,,,0.00,,2013-06-05 14:02:00,
2013-06-05 10:12:00,66.0,51.0,30.22,East,87,2.0,4.0,59,0.00,,,0.00,,2013-06-05 14:12:00,
2013-06-05 10:22:00,69.0,52.0,30.21,South,177,1.0,3.0,54,0.00,,,0.00,,2013-06-05 14:22:00,
2013-06-05 10:32:00,69.0,52.0,30.21,South,177,1.0,3.0,54,0.00,,,0.00,,2013-06-05 14:32:00,
2013-06-05 10:42:00,69.0,52.0,30.21,South,177,1.0,3.0,54,0.00,,,0.00,,2013-06-05 14:42:00,
2013-06-05 10:52:00,70.0,53.0,30.22,SSW,211,0.0,2.0,54,0.00,,,0.00,,2013-06-05 14:52:00,
2013-06-05 11:02:00,71.0,52.0,30.21,South,189,1.0,4.0,52,0.00,,,0.00,,2013-06-05 15:02:00,
2013-06-05 11:12:00,71.0,52.0,30.21,South,189,1.0,4.0,52,0.00,,,0.00,,2013-06-05 15:12:00,
2013-06-05 11:22:00,72.0,53.0,30.21,SSW,192,1.0,4.0,51,0.00,,,0.00,,2013-06-05 15:22:00,
2013-06-05 11:33:00,73.0,52.0,30.20,SSW,201,2.0,4.0,47,0.00,,,0.00,,2013-06-05 15:33:00,
2013-06-05 11:42:00,73.0,52.0,30.20,SSW,201,2.0,4.0,47,0.00,,,0.00,,2013-06-05 15:42:00,
2013-06-05 11:53:00,73.0,52.0,30.20,SSW,201,2.0,4.0,47,0.00,,,0.00,,2013-06-05 15:53:00,
2013-06-05 12:03:00,72.0,48.0,30.19,SSE,158,1.0,9.0,43,0.00,,,0.00,,2013-06-05 16:03:00,
2013-06-05 12:12:00,72.0,48.0,30.19,SSE,158,1.0,9.0,43,0.00,,,0.00,,2013-06-05 16:12:00,
2013-06-05 12:23:00,72.0,48.0,30.19,South,173,2.0,9.0,43,0.00,,,0.00,,2013-06-05 16:23:00,
2013-06-05 12:32:00,73.0,50.0,30.19,SSE,158,2.0,5.0,44,0.00,,,0.00,,2013-06-05 16:32:00,
2013-06-05 12:42:00,73.0,50.0,30.19,SSE,158,2.0,5.0,44,0.00,,,0.00,,2013-06-05 16:42:00,
2013-06-05 12:54:00,73.0,50.0,30.19,SSE,158,2.0,5.0,44,0.00,,,0.00,,2013-06-05 16:54:00,
2013-06-05 13:02:00,73.0,50.0,30.18,East,79,1.0,5.0,44,0.00,,,0.00,,2013-06-05 17:02:00,
2013-06-05 13:13:00,73.0,50.0,30.18,East,79,1.0,5.0,44,0.00,,,0.00,,2013-06-05 17:13:00,
2013-06-05 13:22:00,74.0,51.0,30.17,SSE,158,2.0,5.0,44,0.00,,,0.00,,2013-06-05 17:22:00,
2013-06-05 13:33:00,74.0,49.0,30.17,South,171,2.0,4.0,41,0.00,,,0.00,,2013-06-05 17:33:00,
2013-06-05 13:43:00,74.0,49.0,30.17,South,171,2.0,4.0,41,0.00,,,0.00,,2013-06-05 17:43:00,
2013-06-05 13:52:00,74.0,49.0,30.17,South,171,2.0,4.0,41,0.00,,,0.00,,2013-06-05 17:52:00,
2013-06-05 14:02:00,75.0,52.0,30.16,NNE,24,1.0,2.0,44,0.00,,,0.00,,2013-06-05 18:02:00,
2013-06-05 14:12:00,75.0,52.0,30.16,NNE,24,1.0,2.0,44,0.00,,,0.00,,2013-06-05 18:12:00,
2013-06-05 14:23:00,75.0,50.0,30.16,NE,43,1.0,4.0,42,0.00,,,0.00,,2013-06-05 18:23:00,
2013-06-05 14:32:00,74.0,49.0,30.15,NE,52,2.0,4.0,41,0.00,,,0.00,,2013-06-05 18:32:00,
2013-06-05 14:42:00,74.0,49.0,30.15,NE,52,2.0,4.0,41,0.00,,,0.00,,2013-06-05 18:42:00,
2013-06-05 14:52:00,74.0,49.0,30.15,NE,52,2.0,4.0,41,0.00,,,0.00,,2013-06-05 18:52:00,
2013-06-05 15:02:00,75.0,50.0,30.14,NE,54,2.0,4.0,41,0.00,,,0.00,,2013-06-05 19:02:00,
2013-06-05 15:12:00,75.0,50.0,30.14,NE,54,2.0,4.0,41,0.00,,,0.00,,2013-06-05 19:12:00,
2013-06-05 15:23:00,77.0,50.0,30.14,SSW,213,2.0,5.0,39,0.00,,,0.00,,2013-06-05 19:23:00,
2013-06-05 15:32:00,76.0,50.0,30.12,SSE,156,2.0,6.0,40,0.00,,,0.00,,2013-06-05 19:32:00,
2013-06-05 15:42:00,76.0,50.0,30.12,SSE,156,2.0,6.0,40,0.00,,,0.00,,2013-06-05 19:42:00,
2013-06-05 15:52:00,76.0,50.0,30.12,SSE,156,2.0,6.0,40,0.00,,,0.00,,2013-06-05 19:52:00,
2013-06-05 16:03:00,76.0,52.0,30.12,SSE,153,2.0,6.0,43,0.00,,,0.00,,2013-06-05 20:03:00,
2013-06-05 16:12:00,74.0,50.0,30.13,South,183,3.0,9.0,43,0.00,,,0.00,,2013-06-05 20:12:00,
2013-06-05 16:23:00,74.0,50.0,30.13,South,183,3.0,9.0,43,0.00,,,0.00,,2013-06-05 20:23:00,
2013-06-05 16:32:00,74.0,50.0,30.13,SSE,153,2.0,7.0,43,0.00,,,0.00,,2013-06-05 20:32:00,
2013-06-05 16:42:00,74.0,50.0,30.13,South,175,2.0,7.0,43,0.00,,,0.00,,2013-06-05 20:42:00,
2013-06-05 16:52:00,74.0,50.0,30.13,South,175,2.0,7.0,43,0.00,,,0.00,,2013-06-05 20:52:00,
2013-06-05 17:02:00,74.0,51.0,30.14,SSE,153,3.0,6.0,44,0.00,,,0.00,,2013-06-05 21:02:00,
2013-06-05 17:12:00,76.0,51.0,30.13,SW,230,1.0,5.0,42,0.00,,,0.00,,2013-06-05 21:12:00,
2013-06-05 17:22:00,76.0,51.0,30.13,SW,230,1.0,5.0,42,0.00,,,0.00,,2013-06-05 21:22:00,
2013-06-05 17:33:00,76.0,51.0,30.13,SW,230,1.0,5.0,42,0.00,,,0.00,,2013-06-05 21:33:00,
2013-06-05 17:43:00,75.0,51.0,30.14,South,178,2.0,5.0,43,0.00,,,0.00,,2013-06-05 21:43:00,
2013-06-05 17:53:00,75.0,51.0,30.14,South,178,2.0,5.0,43,0.00,,,0.00,,2013-06-05 21:53:00,
2013-06-05 18:02:00,74.0,48.0,30.13,South,174,2.0,8.0,40,0.00,,,0.00,,2013-06-05 22:02:00,
2013-06-05 18:13:00,74.0,48.0,30.13,South,174,2.0,8.0,40,0.00,,,0.00,,2013-06-05 22:13:00,
2013-06-05 18:22:00,74.0,48.0,30.13,South,174,2.0,8.0,40,0.00,,,0.00,,2013-06-05 22:22:00,
2013-06-05 18:33:00,73.0,47.0,30.14,South,186,2.0,5.0,39,0.00,,,0.00,,2013-06-05 22:33:00,
2013-06-05 18:42:00,73.0,46.0,30.14,South,169,1.0,5.0,38,0.00,,,0.00,,2013-06-05 22:42:00,
2013-06-05 18:53:00,73.0,46.0,30.14,South,169,1.0,5.0,38,0.00,,,0.00,,2013-06-05 22:53:00,
2013-06-05 19:02:00,73.0,46.0,30.14,South,169,1.0,5.0,38,0.00,,,0.00,,2013-06-05 23:02:00,
2013-06-05 19:12:00,72.0,46.0,30.14,South,182,2.0,6.0,40,0.00,,,0.00,,2013-06-05 23:12:00,
2013-06-05 19:22:00,72.0,46.0,30.14,South,182,2.0,6.0,40,0.00,,,0.00,,2013-06-05 23:22:00,
2013-06-05 19:32:00,72.0,46.0,30.14,South,182,2.0,6.0,40,0.00,,,0.00,,2013-06-05 23:32:00,
2013-06-05 19:42:00,72.0,46.0,30.14,South,182,2.0,6.0,40,0.00,,,0.00,,2013-06-05 23:42:00,
2013-06-05 19:53:00,69.0,47.0,30.13,SE,141,1.0,7.0,45,0.00,,,0.00,,2013-06-05 23:53:00,
2013-06-05 20:02:00,69.0,48.0,30.13,West,268,0.0,3.0,48,0.00,,,0.00,,2013-06-06 00:02:00,
2013-06-05 20:12:00,69.0,48.0,30.13,West,268,0.0,3.0,48,0.00,,,0.00,,2013-06-06 00:12:00,
2013-06-05 20:22:00,69.0,48.0,30.13,West,268,0.0,3.0,48,0.00,,,0.00,,2013-06-06 00:22:00,
2013-06-05 20:32:00,65.0,48.0,30.13,North,0,0.0,0.0,54,0.00,,,0.00,,2013-06-06 00:32:00,
2013-06-05 20:43:00,65.0,48.0,30.13,North,0,0.0,0.0,54,0.00,,,0.00,,2013-06-06 00:43:00,
2013-06-05 20:52:00,65.0,48.0,30.13,North,0,0.0,0.0,55,0.00,,,0.00,,2013-06-06 00:52:00,
2013-06-05 21:02:00,63.0,50.0,30.14,North,0,0.0,0.0,62,0.00,,,0.00,,2013-06-06 01:02:00,
2013-06-05 21:12:00,63.0,50.0,30.14,North,0,0.0,0.0,62,0.00,,,0.00,,2013-06-06 01:12:00,
2013-06-05 21:22:00,63.0,50.0,30.14,North,0,0.0,0.0,62,0.00,,,0.00,,2013-06-06 01:22:00,
2013-06-05 21:32:00,60.0,50.0,30.14,NE,45,0.0,3.0,70,0.00,,,0.00,,2013-06-06 01:32:00,
2013-06-05 21:42:00,60.0,51.0,30.14,NE,52,1.0,2.0,73,0.00,,,0.00,,2013-06-06 01:42:00,
2013-06-05 21:53:00,60.0,51.0,30.14,NE,52,1.0,2.0,73,0.00,,,0.00,,2013-06-06 01:53:00,
2013-06-05 22:02:00,60.0,51.0,30.14,NE,52,1.0,2.0,73,0.00,,,0.00,,2013-06-06 02:02:00,
2013-06-05 22:12:00,60.0,51.0,30.14,NE,52,1.0,2.0,73,0.00,,,0.00,,2013-06-06 02:12:00,
2013-06-05 22:22:00,60.0,51.0,30.15,North,0,0.0,0.0,71,0.00,,,0.00,,2013-06-06 02:22:00,
2013-06-05 22:32:00,60.0,51.0,30.15,North,0,0.0,0.0,73,0.00,,,0.00,,2013-06-06 02:32:00,
2013-06-05 22:42:00,60.0,51.0,30.15,North,0,0.0,0.0,73,0.00,,,0.00,,2013-06-06 02:42:00,
2013-06-05 22:52:00,60.0,51.0,30.15,North,0,0.0,0.0,73,0.00,,,0.00,,2013-06-06 02:52:00,
2013-06-05 23:02:00,59.0,51.0,30.16,North,0,0.0,0.0,74,0.00,,,0.00,,2013-06-06 03:02:00,
2013-06-05 23:12:00,59.0,51.0,30.16,North,0,0.0,0.0,74,0.00,,,0.00,,2013-06-06 03:12:00,
2013-06-05 23:22:00,59.0,51.0,30.16,North,0,0.0,0.0,74,0.00,,,0.00,,2013-06-06 03:22:00,
2013-06-05 23:33:00,58.0,51.0,30.15,North,0,0.0,0.0,77,0.00,,,0.00,,2013-06-06 03:33:00,
2013-06-05 23:43:00,58.0,51.0,30.15,North,0,0.0,0.0,77,0.00,,,0.00,,2013-06-06 03:43:00,
2013-06-05 23:53:00,57.0,51.0,30.14,North,0,0.0,0.0,80,0.00,,,0.00,,2013-06-06 03:53:00,